F/V Evann Emma — FGUH — position and weather

sailwx.info

Track history (hours):
 
Tides and Currents Weather Stations Pressure Air Temp Water Temp Dewpoint Dewpoint Depression Visibility Wind Speed Wind Dir Waves Ship Positions

F/V Evann Emma

Last reported at 2017-Dec-09 03:43 UTC. Time now 2017-Dec-12 23:56 UTC.
Position N 47°35' W 005°08'.

Length 20 m.

Type: Fishing. MMSI: 227904000.

Date/timePositionNaut miles runAvg speedWind from/ knotsBaromVisibWave heightAir tempDewpointWater temp
2017-Dec-09 03:43N 47°35' W 005°08'4 8.2
2017-Dec-09 03:17N 47°38' W 005°08'3 8.4
2017-Dec-09 02:59N 47°41' W 005°09'4 8.4
2017-Dec-09 02:27N 47°45' W 005°09'4 8.8
2017-Dec-09 01:59N 47°49' W 005°10'4 9.1
2017-Dec-09 01:31N 47°54' W 005°10'6 9.7
2017-Dec-09 00:55N 47°59' W 005°11'410.2
2017-Dec-09 00:29N 48°04' W 005°11'5 9.1
2017-Dec-09 00:00N 48°07' W 005°06'4 8.7
2017-Dec-08 23:30N 48°10' W 005°01'4 8.7
2017-Dec-08 23:01N 48°12' W 004°56'4 8.4
2017-Dec-08 22:30N 48°15' W 004°51'4 8.5
2017-Dec-08 22:00N 48°17' W 004°46'4 8.8
2017-Dec-08 21:30N 48°19' W 004°40'5 9.6
2017-Dec-08 21:01N 48°21' W 004°33'4 7.1
2017-Dec-08 20:31N 48°23' W 004°29'0 0.0
2017-Dec-08 20:01N 48°23' W 004°29'0 0.0
2017-Dec-08 19:31N 48°23' W 004°29'  
2017-Dec-04 10:30N 48°23' W 004°29'0 0.0
2017-Dec-04 10:00N 48°23' W 004°29'0 0.0
2017-Dec-03 15:52N 48°23' W 004°29'0 0.0
2017-Dec-03 15:30N 48°23' W 004°29'0 0.0
2017-Dec-02 06:43N 48°23' W 004°29'0 0.0
2017-Dec-02 06:30N 48°23' W 004°29'0 0.0
2017-Dec-02 06:01N 48°23' W 004°29'0 0.0
2017-Dec-02 05:30N 48°23' W 004°29'0 0.0
2017-Dec-02 05:01N 48°23' W 004°29'0 0.0
2017-Dec-02 04:31N 48°23' W 004°29'0 0.0
2017-Dec-02 04:01N 48°23' W 004°29'0 0.0
2017-Dec-02 03:30N 48°23' W 004°29'0 0.0
2017-Dec-02 03:00N 48°23' W 004°29'0 0.0
2017-Dec-02 02:30N 48°23' W 004°29'0 0.0
2017-Dec-02 02:00N 48°23' W 004°29'0 0.0
2017-Dec-02 01:30N 48°23' W 004°29'0 0.3
2017-Dec-02 01:01N 48°23' W 004°29'0 0.4
2017-Dec-02 00:30N 48°23' W 004°29'2 3.5
2017-Dec-02 00:01N 48°22' W 004°30'611.2
2017-Dec-01 23:30N 48°19' W 004°38'5 9.7
2017-Dec-01 23:00N 48°18' W 004°45'5 9.5
2017-Dec-01 22:31N 48°16' W 004°52'5 9.4
2017-Dec-01 22:01N 48°15' W 004°58'5 9.1
2017-Dec-01 21:30N 48°13' W 005°05'4 8.8
2017-Dec-01 21:01N 48°12' W 005°11'4 8.3
2017-Dec-01 20:30N 48°10' W 005°17'4 8.0
2017-Dec-01 20:00N 48°09' W 005°23'4 7.7
2017-Dec-01 19:30N 48°08' W 005°28'4 7.3
2017-Dec-01 19:01N 48°07' W 005°33'4 7.3
2017-Dec-01 18:30N 48°06' W 005°38'  
Track history (hours):
 
Tides and Currents Weather Stations Pressure Air Temp Water Temp Dewpoint Dewpoint Depression Visibility Wind Speed Wind Dir Waves Ship Positions

F/V Evann Emma

Last reported at 2017-Dec-09 03:43 UTC. Time now 2017-Dec-12 23:56 UTC.
Position N 47°35' W 005°08'.

Length 20 m.

Type: Fishing. MMSI: 227904000.

Date/timePositionNaut miles runAvg speedWind from/ knotsBaromVisibWave heightAir tempDewpointWater temp
2017-Dec-09 03:43N 47°35' W 005°08'4 8.2
2017-Dec-09 03:17N 47°38' W 005°08'3 8.4
2017-Dec-09 02:59N 47°41' W 005°09'4 8.4
2017-Dec-09 02:27N 47°45' W 005°09'4 8.8
2017-Dec-09 01:59N 47°49' W 005°10'4 9.1
2017-Dec-09 01:31N 47°54' W 005°10'6 9.7
2017-Dec-09 00:55N 47°59' W 005°11'410.2
2017-Dec-09 00:29N 48°04' W 005°11'5 9.1
2017-Dec-09 00:00N 48°07' W 005°06'4 8.7
2017-Dec-08 23:30N 48°10' W 005°01'4 8.7
2017-Dec-08 23:01N 48°12' W 004°56'4 8.4
2017-Dec-08 22:30N 48°15' W 004°51'4 8.5
2017-Dec-08 22:00N 48°17' W 004°46'4 8.8
2017-Dec-08 21:30N 48°19' W 004°40'5 9.6
2017-Dec-08 21:01N 48°21' W 004°33'4 7.1
2017-Dec-08 20:31N 48°23' W 004°29'0 0.0
2017-Dec-08 20:01N 48°23' W 004°29'0 0.0
2017-Dec-08 19:31N 48°23' W 004°29'  
2017-Dec-04 10:30N 48°23' W 004°29'0 0.0
2017-Dec-04 10:00N 48°23' W 004°29'0 0.0
2017-Dec-03 15:52N 48°23' W 004°29'0 0.0
2017-Dec-03 15:30N 48°23' W 004°29'0 0.0
2017-Dec-02 06:43N 48°23' W 004°29'0 0.0
2017-Dec-02 06:30N 48°23' W 004°29'0 0.0
2017-Dec-02 06:01N 48°23' W 004°29'0 0.0
2017-Dec-02 05:30N 48°23' W 004°29'0 0.0
2017-Dec-02 05:01N 48°23' W 004°29'0 0.0
2017-Dec-02 04:31N 48°23' W 004°29'0 0.0
2017-Dec-02 04:01N 48°23' W 004°29'0 0.0
2017-Dec-02 03:30N 48°23' W 004°29'0 0.0
2017-Dec-02 03:00N 48°23' W 004°29'0 0.0
2017-Dec-02 02:30N 48°23' W 004°29'0 0.0
2017-Dec-02 02:00N 48°23' W 004°29'0 0.0
2017-Dec-02 01:30N 48°23' W 004°29'0 0.3
2017-Dec-02 01:01N 48°23' W 004°29'0 0.4
2017-Dec-02 00:30N 48°23' W 004°29'2 3.5
2017-Dec-02 00:01N 48°22' W 004°30'611.2
2017-Dec-01 23:30N 48°19' W 004°38'5 9.7
2017-Dec-01 23:00N 48°18' W 004°45'5 9.5
2017-Dec-01 22:31N 48°16' W 004°52'5 9.4
2017-Dec-01 22:01N 48°15' W 004°58'5 9.1
2017-Dec-01 21:30N 48°13' W 005°05'4 8.8
2017-Dec-01 21:01N 48°12' W 005°11'4 8.3
2017-Dec-01 20:30N 48°10' W 005°17'4 8.0
2017-Dec-01 20:00N 48°09' W 005°23'4 7.7
2017-Dec-01 19:30N 48°08' W 005°28'4 7.3
2017-Dec-01 19:01N 48°07' W 005°33'4 7.3
2017-Dec-01 18:30N 48°06' W 005°38'  

Dump ship's entire track history